createdAt,value
2024-01-15T00:00:39.568Z,100.00
2024-01-15T00:03:07.732Z,100.00
2024-01-15T00:05:35.786Z,100.00
2024-01-15T00:08:03.808Z,100.00
2024-01-15T00:10:31.791Z,100.00
2024-01-15T00:12:59.735Z,100.00
2024-01-15T00:15:29.753Z,100.00
2024-01-15T00:17:59.276Z,94.08
2024-01-15T00:20:29.647Z,88.63
2024-01-15T00:22:58.919Z,86.10
2024-01-15T00:25:26.880Z,80.87
2024-01-15T00:27:54.897Z,79.57
2024-01-15T00:30:22.942Z,76.71
2024-01-15T00:32:51.187Z,75.31
2024-01-15T00:35:20.607Z,74.73
2024-01-15T00:37:48.956Z,75.04
2024-01-15T00:40:17.268Z,73.19
2024-01-15T00:42:45.359Z,71.51
2024-01-15T00:45:13.607Z,71.30
2024-01-15T00:47:41.691Z,70.40
2024-01-15T00:50:10.273Z,67.82
2024-01-15T00:52:39.562Z,66.65
2024-01-15T00:55:08.372Z,65.74
2024-01-15T00:57:36.378Z,65.93
2024-01-15T01:00:06.752Z,66.14
2024-01-15T01:02:35.192Z,66.31
2024-01-15T01:05:03.222Z,66.13
2024-01-15T01:07:31.223Z,65.89
2024-01-15T01:10:00.587Z,65.99
2024-01-15T01:12:28.709Z,66.30
2024-01-15T01:14:56.694Z,66.88
2024-01-15T01:17:24.829Z,66.71
2024-01-15T01:19:53.146Z,66.48
2024-01-15T01:22:21.212Z,65.86
2024-01-15T01:24:49.247Z,67.29
2024-01-15T01:27:18.688Z,67.23
2024-01-15T01:29:46.688Z,67.84
2024-01-15T01:32:14.683Z,67.84
2024-01-15T01:34:43.566Z,68.61
2024-01-15T01:37:13.669Z,68.46
2024-01-15T01:39:41.713Z,68.65
2024-01-15T01:42:09.784Z,69.37
2024-01-15T01:44:39.112Z,69.70
2024-01-15T01:47:07.110Z,70.48
2024-01-15T01:49:37.080Z,71.94
2024-01-15T01:52:06.738Z,73.58
2024-01-15T01:54:34.814Z,74.45
2024-01-15T01:57:02.825Z,76.14
2024-01-15T01:59:30.781Z,78.72
2024-01-15T02:02:00.149Z,80.60
2024-01-15T02:04:28.450Z,83.14
2024-01-15T02:06:56.555Z,84.00
2024-01-15T02:09:24.567Z,85.53
2024-01-15T02:11:52.505Z,86.31
2024-01-15T02:14:20.492Z,86.99
2024-01-15T02:16:48.467Z,87.98
2024-01-15T02:19:19.117Z,89.95
2024-01-15T02:21:47.245Z,91.71
2024-01-15T02:24:16.709Z,93.36
2024-01-15T02:26:44.712Z,96.07
2024-01-15T02:29:12.682Z,98.01
2024-01-15T02:31:41.092Z,95.26
2024-01-15T02:34:09.203Z,92.88
2024-01-15T02:36:37.249Z,94.59
2024-01-15T02:39:05.355Z,94.33
2024-01-15T02:41:34.688Z,97.02
2024-01-15T02:44:02.693Z,99.46
2024-01-15T02:46:30.686Z,100.00
2024-01-15T02:48:58.775Z,100.00
2024-01-15T02:51:26.787Z,100.00
2024-01-15T02:53:54.795Z,100.00
2024-01-15T02:56:22.734Z,100.00
2024-01-15T02:58:52.232Z,100.00
2024-01-15T03:01:21.684Z,100.00
2024-01-15T03:03:49.761Z,100.00
2024-01-15T03:06:17.794Z,100.00
2024-01-15T03:08:45.850Z,100.00
2024-01-15T03:11:13.848Z,100.00
2024-01-15T03:13:41.816Z,100.00
2024-01-15T03:16:11.139Z,100.00
2024-01-15T03:18:39.195Z,100.00
2024-01-15T03:21:07.987Z,100.00
2024-01-15T03:23:35.998Z,100.00
2024-01-15T03:26:03.990Z,100.00
2024-01-15T03:28:32.118Z,100.00
2024-01-15T03:31:00.336Z,100.00
2024-01-15T03:33:29.847Z,100.00
2024-01-15T03:35:57.853Z,100.00
2024-01-15T03:38:25.864Z,100.00
2024-01-15T03:40:53.974Z,100.00
2024-01-15T03:43:22.009Z,100.00
2024-01-15T03:45:50.122Z,100.00
2024-01-15T03:48:20.697Z,100.00
2024-01-15T03:50:50.182Z,100.00
2024-01-15T03:53:18.176Z,100.00
2024-01-15T03:55:46.168Z,100.00
2024-01-15T03:58:16.073Z,100.00
2024-01-15T04:00:44.434Z,100.00
2024-01-15T04:03:12.499Z,100.00
2024-01-15T04:05:40.718Z,100.00
2024-01-15T04:08:10.256Z,100.00
2024-01-15T04:10:38.223Z,100.00
2024-01-15T04:13:06.279Z,100.00
2024-01-15T04:15:34.332Z,100.00
2024-01-15T04:18:03.829Z,100.00
2024-01-15T04:20:32.104Z,100.00
2024-01-15T04:23:00.077Z,100.00
2024-01-15T04:25:29.433Z,100.00
2024-01-15T04:27:57.421Z,100.00
2024-01-15T04:30:25.650Z,100.00
2024-01-15T04:32:53.755Z,100.00
2024-01-15T04:35:21.814Z,100.00
2024-01-15T04:37:49.812Z,100.00
2024-01-15T04:40:17.875Z,100.00
2024-01-15T04:42:47.375Z,100.00
2024-01-15T04:45:15.636Z,100.00
2024-01-15T04:47:43.689Z,100.00
2024-01-15T04:50:11.678Z,100.00
2024-01-15T04:52:39.640Z,100.00
2024-01-15T04:55:07.840Z,100.00
2024-01-15T04:57:35.866Z,100.00
2024-01-15T05:00:06.413Z,100.00
2024-01-15T05:02:34.652Z,100.00
2024-01-15T05:05:02.761Z,100.00
2024-01-15T05:07:30.761Z,100.00
2024-01-15T05:09:59.186Z,100.00
2024-01-15T05:12:27.313Z,100.00
2024-01-15T05:14:55.303Z,100.00
2024-01-15T05:17:24.724Z,100.00
2024-01-15T05:19:52.911Z,100.00
2024-01-15T05:22:22.249Z,100.00
2024-01-15T05:24:50.301Z,100.00
2024-01-15T05:27:18.577Z,100.00
2024-01-15T05:29:46.602Z,100.00
2024-01-15T05:32:14.582Z,100.00
2024-01-15T05:34:44.032Z,100.00
2024-01-15T05:37:11.986Z,100.00
2024-01-15T05:39:39.958Z,100.00
2024-01-15T05:42:08.191Z,100.00
2024-01-15T05:44:36.386Z,100.00
2024-01-15T05:47:05.165Z,100.00
2024-01-15T05:49:33.276Z,100.00
2024-01-15T05:52:02.790Z,100.00
2024-01-15T05:54:31.211Z,100.00
2024-01-15T05:56:59.220Z,100.00
2024-01-15T05:59:27.734Z,100.00
2024-01-15T06:01:55.700Z,100.00
2024-01-15T06:04:23.827Z,100.00
2024-01-15T06:06:51.823Z,100.00
2024-01-15T06:09:21.206Z,100.00
2024-01-15T06:11:49.181Z,100.00
2024-01-15T06:14:17.149Z,100.00
2024-01-15T06:16:45.144Z,100.00
2024-01-15T06:19:13.169Z,100.00
2024-01-15T06:21:41.159Z,100.00
2024-01-15T06:24:11.046Z,100.00
2024-01-15T06:26:40.379Z,100.00
2024-01-15T06:29:08.305Z,100.00
2024-01-15T06:31:37.467Z,100.00
2024-01-15T06:34:05.713Z,100.00
2024-01-15T06:36:33.715Z,100.00
2024-01-15T06:39:01.728Z,100.00
2024-01-15T06:41:29.716Z,100.00
2024-01-15T06:43:59.033Z,100.00
2024-01-15T06:46:26.996Z,100.00
2024-01-15T06:48:55.141Z,100.00
2024-01-15T06:51:23.173Z,100.00
2024-01-15T06:53:51.142Z,100.00
2024-01-15T06:56:19.118Z,100.00
2024-01-15T06:58:47.068Z,100.00
2024-01-15T07:01:16.940Z,100.00
2024-01-15T07:03:45.048Z,100.00
2024-01-15T07:06:13.259Z,100.00
2024-01-15T07:08:41.688Z,100.00
2024-01-15T07:11:09.651Z,100.00
2024-01-15T07:13:38.582Z,100.00
2024-01-15T07:16:06.737Z,94.95
2024-01-15T07:18:36.089Z,95.53
2024-01-15T07:21:04.212Z,93.84
2024-01-15T07:23:33.442Z,95.57
2024-01-15T07:26:01.431Z,94.49
2024-01-15T07:28:31.209Z,91.95
2024-01-15T07:30:59.339Z,91.08
2024-01-15T07:33:27.633Z,89.03
2024-01-15T07:35:58.871Z,87.47
2024-01-15T07:38:27.868Z,88.48
2024-01-15T07:40:56.437Z,87.85
2024-01-15T07:43:24.379Z,88.59
2024-01-15T07:45:52.472Z,87.13
2024-01-15T07:48:21.485Z,86.43
2024-01-15T07:50:49.573Z,87.86
2024-01-15T07:53:19.013Z,86.73
2024-01-15T07:55:47.292Z,84.37
2024-01-15T07:58:16.829Z,85.39
2024-01-15T08:00:45.833Z,83.97
2024-01-15T08:03:14.475Z,84.45
2024-01-15T08:05:42.685Z,82.57
2024-01-15T08:08:10.764Z,82.97
2024-01-15T08:10:40.131Z,81.68
2024-01-15T08:13:09.586Z,81.29
2024-01-15T08:15:37.770Z,79.78
2024-01-15T08:18:06.543Z,77.67
2024-01-15T08:20:34.619Z,77.36
2024-01-15T08:23:02.625Z,76.77
2024-01-15T08:25:30.832Z,75.57
2024-01-15T08:28:00.286Z,73.27
2024-01-15T08:30:29.252Z,72.09
2024-01-15T08:33:02.325Z,72.12
2024-01-15T08:35:36.274Z,71.31
2024-01-15T08:38:04.434Z,72.20
2024-01-15T08:40:32.627Z,71.69
2024-01-15T08:43:03.297Z,71.91
2024-01-15T08:45:32.553Z,72.06
2024-01-15T08:48:00.867Z,71.43
2024-01-15T08:50:28.862Z,70.16
2024-01-15T08:52:56.979Z,70.47
2024-01-15T08:55:24.956Z,70.39
2024-01-15T08:57:52.947Z,69.61
2024-01-15T09:00:22.427Z,67.00
2024-01-15T09:02:50.406Z,64.74
2024-01-15T09:05:18.673Z,61.41
2024-01-15T09:07:47.149Z,59.87
2024-01-15T09:10:15.301Z,59.15
2024-01-15T09:12:43.784Z,58.78
2024-01-15T09:15:11.906Z,57.89
2024-01-15T09:17:41.378Z,54.56
2024-01-15T09:20:11.187Z,55.22
2024-01-15T09:22:41.761Z,55.90
2024-01-15T09:25:10.788Z,54.85
2024-01-15T09:27:38.884Z,54.36
2024-01-15T09:30:08.133Z,55.08
2024-01-15T09:32:36.328Z,55.96
2024-01-15T09:35:06.370Z,55.57
2024-01-15T09:37:42.364Z,56.54
2024-01-15T09:40:15.991Z,57.39
2024-01-15T09:42:44.334Z,56.84
2024-01-15T09:45:12.530Z,56.68
2024-01-15T09:47:43.780Z,56.44
2024-01-15T09:50:15.320Z,56.82
2024-01-15T09:52:43.354Z,57.29
2024-01-15T09:55:11.409Z,56.34
2024-01-15T09:57:39.740Z,55.48
2024-01-15T10:00:12.112Z,55.51
2024-01-15T10:02:41.327Z,54.68
2024-01-15T10:05:10.262Z,54.04
2024-01-15T10:07:41.062Z,53.99
2024-01-15T10:10:09.950Z,53.76
2024-01-15T10:12:38.446Z,54.17
2024-01-15T10:15:07.335Z,54.72
2024-01-15T10:17:35.376Z,54.79
2024-01-15T10:20:05.517Z,54.84
2024-01-15T10:22:33.585Z,55.10
2024-01-15T10:25:02.924Z,55.29
2024-01-15T10:27:31.098Z,55.23
2024-01-15T10:30:01.740Z,54.74
2024-01-15T10:32:29.743Z,55.38
2024-01-15T10:34:57.831Z,56.00
2024-01-15T10:37:29.372Z,57.38
2024-01-15T10:39:58.604Z,58.02
2024-01-15T10:42:27.993Z,57.96
2024-01-15T10:44:55.962Z,58.35
2024-01-15T10:47:23.880Z,57.49
2024-01-15T10:49:51.917Z,56.65
2024-01-15T10:52:19.935Z,54.89
2024-01-15T10:54:47.930Z,52.58
2024-01-15T10:57:16.833Z,52.78
2024-01-15T10:59:46.184Z,52.13
2024-01-15T11:02:15.428Z,51.86
2024-01-15T11:04:43.627Z,51.75
2024-01-15T11:07:12.718Z,51.43
2024-01-15T11:09:40.838Z,50.57
2024-01-15T11:12:10.114Z,49.90
2024-01-15T11:14:40.615Z,46.08
2024-01-15T11:17:10.900Z,42.98
2024-01-15T11:19:41.596Z,40.19
2024-01-15T11:22:10.553Z,36.94
2024-01-15T11:24:39.931Z,34.77
2024-01-15T11:27:08.022Z,33.15
2024-01-15T11:29:36.727Z,32.55
2024-01-15T11:32:09.860Z,34.06
2024-01-15T11:34:53.859Z,33.19
2024-01-15T11:37:21.903Z,33.15
2024-01-15T11:39:49.997Z,31.88
2024-01-15T11:42:19.987Z,30.92
2024-01-15T11:44:47.965Z,29.77
2024-01-15T11:47:17.268Z,28.89
2024-01-15T11:50:02.125Z,29.67
2024-01-15T11:52:35.167Z,31.21
2024-01-15T11:55:25.122Z,32.03
2024-01-15T11:57:55.483Z,33.71
2024-01-15T12:00:24.949Z,34.63
2024-01-15T12:02:54.406Z,34.58
2024-01-15T12:05:22.932Z,35.85
2024-01-15T12:07:51.435Z,35.01
2024-01-15T12:10:20.416Z,35.18
2024-01-15T12:12:56.695Z,36.62
2024-01-15T12:15:24.729Z,37.16
2024-01-15T12:17:54.155Z,36.82
2024-01-15T12:20:22.208Z,37.38
2024-01-15T12:22:59.874Z,37.54
2024-01-15T12:25:30.048Z,38.19
2024-01-15T12:27:58.039Z,38.42
2024-01-15T12:30:26.059Z,38.73
2024-01-15T12:32:55.422Z,38.88
2024-01-15T12:35:23.470Z,39.18
2024-01-15T12:37:51.423Z,38.70
2024-01-15T12:40:21.315Z,38.78
2024-01-15T12:42:49.418Z,39.65
2024-01-15T12:45:17.481Z,39.49
2024-01-15T12:47:45.475Z,39.38
2024-01-15T12:50:19.713Z,39.06
2024-01-15T12:52:48.948Z,39.21
2024-01-15T12:55:17.115Z,39.02
2024-01-15T12:57:46.426Z,38.41
2024-01-15T13:00:16.315Z,38.98
2024-01-15T13:02:45.128Z,38.97
2024-01-15T13:05:15.773Z,39.01
2024-01-15T13:07:45.142Z,39.30
2024-01-15T13:10:13.776Z,40.18
2024-01-15T13:12:43.035Z,40.72
2024-01-15T13:15:13.838Z,40.52
2024-01-15T13:17:43.964Z,41.05
2024-01-15T13:20:14.712Z,40.45
2024-01-15T13:22:45.463Z,40.63
2024-01-15T13:25:13.883Z,40.79
2024-01-15T13:27:42.757Z,40.18
2024-01-15T13:30:12.494Z,40.92
2024-01-15T13:32:40.626Z,41.29
2024-01-15T13:35:11.215Z,40.96
2024-01-15T13:37:42.514Z,40.99
2024-01-15T13:40:17.835Z,41.04
2024-01-15T13:42:47.018Z,40.73
2024-01-15T13:45:16.166Z,39.89
2024-01-15T13:47:44.578Z,40.18
2024-01-15T13:50:12.680Z,40.15
2024-01-15T13:52:41.967Z,40.52
2024-01-15T13:55:11.100Z,40.26
2024-01-15T13:57:39.350Z,40.36
2024-01-15T14:00:13.060Z,40.69
2024-01-15T14:02:41.559Z,40.73
2024-01-15T14:05:09.833Z,40.85
2024-01-15T14:07:38.012Z,41.23
2024-01-15T14:10:09.221Z,42.21
2024-01-15T14:12:37.521Z,42.37
2024-01-15T14:15:06.903Z,42.92
2024-01-15T14:17:35.019Z,42.33
2024-01-15T14:20:03.279Z,43.12
2024-01-15T14:22:31.229Z,42.95
2024-01-15T14:24:59.449Z,43.60
2024-01-15T14:27:28.803Z,44.38
2024-01-15T14:29:56.728Z,44.01
2024-01-15T14:32:24.779Z,44.50
2024-01-15T14:34:53.181Z,44.14
2024-01-15T14:37:21.957Z,45.07
2024-01-15T14:39:50.034Z,45.17
2024-01-15T14:42:18.090Z,45.10
2024-01-15T14:44:47.481Z,45.45
2024-01-15T14:47:15.691Z,46.77
2024-01-15T14:49:43.759Z,46.59
2024-01-15T14:52:11.793Z,46.16
2024-01-15T14:54:39.820Z,47.20
2024-01-15T14:57:07.939Z,47.37
2024-01-15T14:59:35.872Z,47.02
2024-01-15T15:02:05.304Z,46.55
2024-01-15T15:04:33.469Z,46.75
2024-01-15T15:07:01.636Z,47.05
2024-01-15T15:09:29.618Z,46.84
2024-01-15T15:11:57.556Z,47.15
2024-01-15T15:14:25.541Z,47.54
2024-01-15T15:16:53.695Z,46.91
2024-01-15T15:19:23.311Z,47.40
2024-01-15T15:21:51.351Z,47.19
2024-01-15T15:24:19.346Z,47.32
2024-01-15T15:26:47.362Z,46.71
2024-01-15T15:29:18.042Z,46.75
2024-01-15T15:31:46.209Z,46.49
2024-01-15T15:34:14.282Z,46.63
2024-01-15T15:36:43.729Z,46.34
2024-01-15T15:39:11.852Z,46.30
2024-01-15T15:41:39.853Z,45.74
2024-01-15T15:44:07.838Z,45.73
2024-01-15T15:46:35.841Z,45.79
2024-01-15T15:49:07.998Z,45.80
2024-01-15T15:51:36.907Z,46.84
2024-01-15T15:54:06.803Z,46.30
2024-01-15T15:56:39.394Z,46.35
2024-01-15T15:59:09.630Z,46.95
2024-01-15T16:01:37.944Z,47.41
2024-01-15T16:04:06.392Z,47.47
2024-01-15T16:06:34.587Z,46.72
2024-01-15T16:09:02.573Z,47.11
2024-01-15T16:11:32.877Z,47.65
2024-01-15T16:14:02.963Z,47.04
2024-01-15T16:23:11.505Z,47.09
2024-01-15T16:23:24.798Z,47.60
2024-01-15T16:23:40.399Z,47.77
2024-01-15T16:25:00.646Z,48.49
2024-01-15T16:27:33.976Z,48.86
2024-01-15T16:30:02.714Z,48.81
2024-01-15T16:32:31.620Z,49.71
2024-01-15T16:35:00.040Z,49.27
2024-01-15T16:37:28.673Z,49.50
2024-01-15T16:39:56.757Z,49.99
2024-01-15T16:42:25.195Z,49.84
2024-01-15T16:44:54.624Z,50.08
2024-01-15T16:47:22.900Z,49.88
2024-01-15T16:49:50.874Z,50.16
2024-01-15T16:52:19.006Z,50.03
2024-01-15T16:54:47.014Z,50.58
2024-01-15T16:57:15.046Z,50.67
2024-01-15T16:59:43.064Z,50.61
2024-01-15T17:02:12.489Z,50.72
2024-01-15T17:04:40.493Z,49.95
2024-01-15T17:07:09.349Z,49.50
2024-01-15T17:09:37.321Z,49.38
2024-01-15T17:12:06.445Z,48.62
2024-01-15T17:14:34.512Z,48.26
2024-01-15T17:17:02.736Z,47.80
2024-01-15T17:19:33.524Z,47.06
2024-01-15T17:22:00.900Z,46.65
2024-01-15T17:24:29.585Z,46.28
2024-01-15T17:26:58.411Z,46.54
2024-01-15T17:29:26.467Z,46.01
2024-01-15T17:31:54.473Z,45.53
2024-01-15T17:34:22.553Z,45.38
2024-01-15T17:36:51.958Z,45.79
2024-01-15T17:39:20.403Z,45.43
2024-01-15T17:41:49.137Z,45.10
2024-01-15T17:44:18.056Z,44.69
2024-01-15T17:46:46.108Z,45.50
2024-01-15T17:49:14.186Z,45.26
2024-01-15T17:51:42.305Z,44.91
2024-01-15T17:54:11.629Z,45.59
2024-01-15T17:56:40.067Z,45.35
2024-01-15T17:59:08.716Z,46.49
2024-01-15T18:01:37.463Z,46.51
2024-01-15T18:04:05.801Z,46.49
2024-01-15T18:06:34.016Z,46.07
2024-01-15T18:09:02.196Z,46.12
2024-01-15T18:11:31.778Z,45.58
2024-01-15T18:13:59.787Z,45.68
2024-01-15T18:16:28.724Z,45.71
2024-01-15T18:18:56.875Z,45.38
2024-01-15T18:21:25.041Z,45.99
2024-01-15T18:23:52.993Z,45.64
2024-01-15T18:26:21.002Z,46.19
2024-01-15T18:28:50.317Z,46.69
2024-01-15T18:31:18.470Z,47.18
2024-01-15T18:33:46.518Z,47.21
2024-01-15T18:36:14.730Z,46.96
2024-01-15T18:38:42.744Z,47.01
2024-01-15T18:41:10.743Z,47.47
2024-01-15T18:43:38.729Z,48.13
2024-01-15T18:46:08.935Z,47.70
2024-01-15T18:48:37.357Z,47.83
2024-01-15T18:51:05.451Z,48.42
2024-01-15T18:53:33.451Z,47.89
2024-01-15T18:56:03.756Z,48.24
2024-01-15T18:58:32.382Z,48.27
2024-01-15T19:01:00.771Z,47.78
2024-01-15T19:03:30.179Z,47.84
2024-01-15T19:05:58.382Z,48.31
2024-01-15T19:08:26.381Z,48.21
2024-01-15T19:10:55.405Z,48.68
2024-01-15T19:13:23.398Z,49.12
2024-01-15T19:15:51.420Z,48.99
2024-01-15T19:18:19.758Z,48.83
2024-01-15T19:20:49.289Z,49.12
2024-01-15T19:23:17.298Z,48.94
2024-01-15T19:25:45.274Z,49.60
2024-01-15T19:28:14.654Z,49.36
2024-01-15T19:30:42.874Z,49.63
2024-01-15T19:33:11.003Z,49.33
2024-01-15T19:35:39.271Z,49.49
2024-01-15T19:38:08.750Z,50.43
2024-01-15T19:40:36.941Z,50.01
2024-01-15T19:43:05.236Z,50.08
2024-01-15T19:45:33.196Z,50.23
2024-01-15T19:48:01.462Z,50.62
2024-01-15T19:50:29.723Z,50.55
2024-01-15T19:52:57.824Z,51.04
2024-01-15T19:55:27.309Z,52.82
2024-01-15T19:57:55.225Z,51.81
2024-01-15T20:00:23.151Z,51.99
2024-01-15T20:02:51.318Z,52.72
2024-01-15T20:05:19.327Z,53.04
2024-01-15T20:07:47.361Z,53.04
2024-01-15T20:10:15.459Z,55.10
2024-01-15T20:12:44.756Z,54.81
2024-01-15T20:15:13.009Z,54.99
2024-01-15T20:17:41.052Z,55.67
2024-01-15T20:20:12.125Z,55.17
2024-01-15T20:22:40.283Z,55.94
2024-01-15T20:25:09.236Z,56.89
2024-01-15T20:27:37.211Z,58.14
2024-01-15T20:30:07.982Z,59.00
2024-01-15T20:32:36.825Z,59.82
2024-01-15T20:35:06.105Z,60.93
2024-01-15T20:37:34.157Z,62.89
2024-01-15T20:40:02.163Z,64.84
2024-01-15T20:42:30.228Z,65.50
2024-01-15T20:44:58.360Z,66.22
2024-01-15T20:47:28.225Z,66.56
2024-01-15T20:49:56.267Z,67.22
2024-01-15T20:52:25.586Z,69.95
2024-01-15T20:54:53.987Z,69.69
2024-01-15T20:57:21.928Z,70.01
2024-01-15T20:59:51.866Z,69.92
2024-01-15T21:02:20.150Z,68.71
2024-01-15T21:04:49.642Z,67.06
2024-01-15T21:07:17.694Z,66.61
2024-01-15T21:09:45.626Z,66.73
2024-01-15T21:12:13.564Z,65.41
2024-01-15T21:14:41.689Z,64.32
2024-01-15T21:17:09.696Z,63.57
2024-01-15T21:19:37.707Z,61.91
2024-01-15T21:22:07.253Z,61.58
2024-01-15T21:24:35.247Z,60.40
2024-01-15T21:27:03.255Z,60.42
2024-01-15T21:29:31.266Z,59.21
2024-01-15T21:31:59.508Z,58.54
2024-01-15T21:34:27.540Z,58.41
2024-01-15T21:36:55.610Z,58.03
2024-01-15T21:39:24.995Z,58.25
2024-01-15T21:41:53.042Z,57.04
2024-01-15T21:44:21.036Z,56.99
2024-01-15T21:46:49.040Z,56.77
2024-01-15T21:49:17.026Z,56.59
2024-01-15T21:51:45.057Z,56.44
2024-01-15T21:54:13.063Z,55.93
2024-01-15T21:56:42.407Z,56.61
2024-01-15T21:59:10.467Z,56.37
2024-01-15T22:01:38.423Z,56.77
2024-01-15T22:04:06.879Z,56.68
2024-01-15T22:06:36.791Z,57.70
2024-01-15T22:09:05.167Z,58.05
2024-01-15T22:11:33.239Z,58.56
2024-01-15T22:14:03.218Z,58.56
2024-01-15T22:16:31.310Z,57.71
2024-01-15T22:19:02.553Z,57.34
2024-01-15T22:21:30.887Z,57.07
2024-01-15T22:23:59.058Z,57.00
2024-01-15T22:26:26.989Z,56.74
2024-01-15T22:28:54.991Z,56.97
2024-01-15T22:31:24.379Z,56.34
2024-01-15T22:33:52.494Z,56.57
2024-01-15T22:36:20.571Z,57.33
2024-01-15T22:38:49.864Z,58.39
2024-01-15T22:41:17.907Z,58.60
2024-01-15T22:43:46.823Z,59.39
2024-01-15T22:46:15.302Z,60.15
2024-01-15T22:48:45.052Z,61.79
2024-01-15T22:51:13.112Z,61.43
2024-01-15T22:53:41.155Z,63.56
2024-01-15T22:56:09.264Z,66.57
2024-01-15T22:58:37.250Z,71.68
2024-01-15T23:01:06.874Z,73.27
2024-01-15T23:03:35.046Z,78.13
2024-01-15T23:06:05.122Z,81.44
2024-01-15T23:08:33.195Z,81.21
2024-01-15T23:11:01.200Z,82.61
2024-01-15T23:13:29.134Z,83.22
2024-01-15T23:15:57.207Z,82.33
2024-01-15T23:18:25.307Z,83.32
2024-01-15T23:20:53.465Z,84.91
2024-01-15T23:23:22.867Z,87.54
2024-01-15T23:25:50.837Z,90.47
2024-01-15T23:28:19.482Z,93.53
2024-01-15T23:30:47.605Z,96.31
2024-01-15T23:33:15.743Z,100.00
2024-01-15T23:35:43.827Z,100.00
2024-01-15T23:38:11.855Z,100.00
2024-01-15T23:40:41.253Z,100.00
2024-01-15T23:43:09.163Z,100.00
2024-01-15T23:45:37.087Z,100.00
2024-01-15T23:48:05.815Z,100.00
2024-01-15T23:50:33.859Z,100.00
2024-01-15T23:53:01.873Z,100.00
2024-01-15T23:55:29.820Z,100.00
2024-01-15T23:58:00.206Z,100.00
